Terminal Aerodrome Forecast
Issued by NWS

Home | Current Version | Previous Version | Text Only | Print | Product List | Glossary On
Versions: 1 2 3 4 5 6 7 8 9 10 11 12 13 14 15 16 17 18 19 20 21 22 23 24 25 26 27 28 29 30 31
715
FTUS43 KLOT 302335
TAFMDW
TAF
KMDW 302335Z 0100/0124 06014G22KT 2SM -DZRA BR OVC006
     FM010500 04012KT 3SM BR OVC003
     FM011400 03010KT 5SM BR OVC005
     FM011700 03010KT 4SM BR VCSH OVC008
     FM012200 02010G16KT 5SM -SHRA OVC010=

USA.gov is the U.S. government's official web portal to all federal, state and local government web resources and services.